EDDP 200050Z 22010KT CAVOK 16/15 Q1020 NOSIG EDDP 200020Z 22010KT CAVOK 16/16 Q1020 NOSIG EDDP 192350Z 24008KT CAVOK 16/15 Q1020 NOSIG EDDP 192320Z 26008KT CAVOK 16/15 Q1020 NOSIG EDDP 192250Z 27008KT CAVOK 16/15 Q1020 NOSIG EDDP 192220Z 24010KT CAVOK 17/16 Q1020 NOSIG EDDP 192150Z 28003KT 210V350 CAVOK 17/16 Q1019 NOSIG EDDP 192120Z 16011KT 9999 -SHRA FEW066CB 17/16 Q1018 NOSIG EDDP 192050Z 22015KT 9999 -SHRA SCT066CB 17/16 Q1019 NOSIG EDDP 192020Z 24022G33KT 9999 -SHRA SCT066CB 19/15 Q1020 TEMPO TSRA EDDP 191950Z 32011KT CAVOK 21/15 Q1019 TEMPO 30015G30KT TSRA EDDP 191920Z 33019KT CAVOK 22/15 Q1019 TEMPO FM1930 30025G45KT TSRA EDDP 191850Z 19007KT 170V240 CAVOK 24/13 Q1018 TEMPO FM1930 30025G45KT TSRA EDDP 191820Z 16004KT CAVOK 25/13 Q1017 BECMG 24005KT EDDP 191750Z 16004KT CAVOK 26/13 Q1017 NOSIG EDDP 191720Z 16005KT CAVOK 26/13 Q1017 NOSIG EDDP 191650Z 18006KT 150V210 CAVOK 27/13 Q1017 NOSIG EDDP 191620Z 19007KT 170V230 CAVOK 28/13 Q1017 NOSIG EDDP 191550Z 18009KT 150V210 CAVOK 29/12 Q1017 NOSIG EDDP 191520Z 17009KT 140V200 CAVOK 28/11 Q1018 NOSIG EDDP 191450Z 18011KT CAVOK 28/11 Q1018 NOSIG EDDP 191420Z 16012KT 130V190 CAVOK 28/11 Q1018 NOSIG EDDP 191350Z 17010KT CAVOK 29/11 Q1019 NOSIG EDDP 191320Z 15011KT 120V190 CAVOK 28/11 Q1019 NOSIG EDDP 191250Z 17010KT CAVOK 27/11 Q1019 NOSIG EDDP 191220Z 15008KT 120V190 CAVOK 27/11 Q1020 NOSIG EDDP 191150Z 15011KT 100V190 CAVOK 27/11 Q1020 NOSIG EDDP 191120Z 15008KT 090V220 CAVOK 27/11 Q1020 NOSIG EDDP 191050Z 16006KT 080V220 CAVOK 26/11 Q1021 NOSIG EDDP 191020Z 16007KT 120V190 CAVOK 25/11 Q1021 NOSIG EDDP 190950Z 19008KT 150V220 CAVOK 25/12 Q1022 NOSIG EDDP 190920Z 17010KT CAVOK 24/12 Q1022 NOSIG EDDP 190850Z 18010KT CAVOK 24/12 Q1022 NOSIG EDDP 190820Z 17011KT 150V210 CAVOK 23/13 Q1022 NOSIG EDDP 190750Z 16011KT CAVOK 22/12 Q1022 NOSIG EDDP 190720Z 16010KT CAVOK 22/13 Q1022 NOSIG EDDP 190650Z 18010KT CAVOK 20/12 Q1022 NOSIG EDDP 190620Z 18009KT CAVOK 19/11 Q1022 NOSIG EDDP 190550Z 17009KT CAVOK 18/11 Q1022 NOSIG EDDP 190520Z 17009KT CAVOK 18/11 Q1022 NOSIG EDDP 190450Z 17008KT CAVOK 17/11 Q1022 NOSIG EDDP 190420Z 16008KT 020V180 CAVOK 16/11 Q1022 NOSIG EDDP 190350Z 16007KT CAVOK 15/10 Q1022 NOSIG EDDP 190320Z 17009KT CAVOK 15/10 Q1022 NOSIG EDDP 190250Z 17008KT CAVOK 15/10 Q1022 NOSIG EDDP 190220Z 17009KT CAVOK 16/11 Q1022 NOSIG EDDP 190150Z 17008KT CAVOK 16/11 Q1022 NOSIG EDDP 190120Z 17008KT CAVOK 16/11 Q1022 NOSIG EDDP 190050Z 16008KT CAVOK 16/11 Q1022 NOSIG EDDP 190020Z 16008KT CAVOK 17/12 Q1022 NOSIG EDDP 182350Z 16008KT 150V250 CAVOK 17/12 Q1022 NOSIG EDDP 182320Z 16008KT CAVOK 18/12 Q1022 NOSIG EDDP 182250Z 16008KT CAVOK 18/12 Q1022 NOSIG EDDP 182220Z 15008KT CAVOK 18/12 Q1023 NOSIG EDDP 182150Z 14008KT CAVOK 18/13 Q1023 NOSIG EDDP 182120Z 13008KT CAVOK 18/13 Q1023 NOSIG EDDP 182050Z 12008KT CAVOK 18/13 Q1023 NOSIG EDDP 182020Z 11008KT CAVOK 17/13 Q1023 NOSIG EDDP 181950Z 10008KT CAVOK 17/13 Q1023 NOSIG EDDP 181920Z 10008KT CAVOK 18/13 Q1023 NOSIG EDDP 181850Z 09006KT CAVOK 20/13 Q1023 NOSIG EDDP 181820Z 11004KT CAVOK 23/13 Q1023 NOSIG EDDP 181750Z 14004KT CAVOK 24/13 Q1023 NOSIG EDDP 181720Z 13003KT CAVOK 24/12 Q1023 NOSIG EDDP 181650Z 13004KT 060V220 CAVOK 25/13 Q1023 NOSIG EDDP 181620Z VRB02KT CAVOK 26/12 Q1023 NOSIG EDDP 181550Z 16004KT 110V230 CAVOK 25/13 Q1023 NOSIG EDDP 181520Z 16005KT 120V190 CAVOK 26/13 Q1023 NOSIG EDDP 181450Z 16007KT 100V200 CAVOK 25/13 Q1023 NOSIG EDDP 181420Z VRB05KT CAVOK 25/12 Q1023 NOSIG EDDP 181350Z 15006KT 100V240 CAVOK 25/13 Q1024 NOSIG EDDP 181320Z 15007KT 120V190 CAVOK 25/12 Q1024 NOSIG

METAR Messwerte "LEIPZIG/SCHKEUDI" EDDP

Zurück zur Übersicht

Ortsname
Ländercode / m ü. NN
Zeit Temperatur Taupunkt Rel.
Luftfeuchte
Luftdruck:
Altimeter
NN
Station
Wind in Beaufort
(Knoten)
Sichtweite
(Meter)
Wolken
(Meter über Grund)
Wettererscheinung
LEIPZIG/SCHKEUDI
DE 129
Fr 20.05. 02:50161594 %1020
1020
1005
SW 3 (10)>= 10000Nicht signifikant 
LEIPZIG/SCHKEUDI
DE 129
Fr 20.05. 02:201616100 %1020
1020
1005
SW 3 (10)>= 10000Nicht signifikant 
LEIPZIG/SCHKEUDI
DE 129
Fr 20.05. 01:50161594 %1020
1020
1005
WSW 3 (8)>= 10000Nicht signifikant 
LEIPZIG/SCHKEUDI
DE 129
Fr 20.05. 01:20161594 %1020
1020
1005
W 3 (8)>= 10000Nicht signifikant 
LEIPZIG/SCHKEUDI
DE 129
Fr 20.05. 00:50161594 %1020
1020
1005
W 3 (8)>= 10000Nicht signifikant 
LEIPZIG/SCHKEUDI
DE 129
Fr 20.05. 00:20171694 %1020
1020
1005
WSW 3 (10)>= 10000Nicht signifikant 
LEIPZIG/SCHKEUDI
DE 129
Do 19.05. 23:50171694 %1019
1019
1004
W 2 (3)
SSW - N
>= 10000Nicht signifikant 
LEIPZIG/SCHKEUDI
DE 129
Do 19.05. 23:20171694 %1018
1018
1003
SSO 4 (11)>= 10000Leicht bewölkt Cb (2000)Regen-Schauer (schwach)
LEIPZIG/SCHKEUDI
DE 129
Do 19.05. 22:50171694 %1019
1019
1004
SW 4 (15)>= 10000Wolkig Cb (2000)Regen-Schauer (schwach)
LEIPZIG/SCHKEUDI
DE 129
Do 19.05. 22:20191578 %1020
1020
1005
WSW 6 (22) - 7 (33)>= 10000Wolkig Cb (2000)Regen-Schauer (schwach)
Bald zeitweise: Gewitter mit Regen
LEIPZIG/SCHKEUDI
DE 129
Do 19.05. 21:50211569 %1019
1019
1004
NW 4 (11)
Bald zeitweise:
WNW 4 (15) - 7 (30)
>= 10000Nicht signifikant Bald zeitweise: Gewitter mit Regen
LEIPZIG/SCHKEUDI
DE 129
Do 19.05. 21:20221565 %1019
1019
1004
NNW 5 (19)
Ab 21:30 zeitweise:
WNW 6 (25) - 9 (45)
>= 10000Nicht signifikant Ab 21:30 zeitweise: Gewitter mit Regen
LEIPZIG/SCHKEUDI
DE 129
Do 19.05. 20:50241350 %1018
1018
1003
S 3 (7)
S - WSW
Ab 21:30 zeitweise:
WNW 6 (25) - 9 (45)
>= 10000Nicht signifikant Ab 21:30 zeitweise: Gewitter mit Regen
LEIPZIG/SCHKEUDI
DE 129
Do 19.05. 20:20251347 %1017
1016
1002
SSO 2 (4)
Bald Übergang zu:
WSW 2 (5)
>= 10000Nicht signifikant 
LEIPZIG/SCHKEUDI
DE 129
Do 19.05. 19:50261345 %1017
1016
1002
SSO 2 (4)>= 10000Nicht signifikant 
LEIPZIG/SCHKEUDI
DE 129
Do 19.05. 19:20261345 %1017
1016
1002
SSO 2 (5)>= 10000Nicht signifikant 
LEIPZIG/SCHKEUDI
DE 129
Do 19.05. 18:50271342 %1017
1016
1002
S 2 (6)
SSO - SSW
>= 10000Nicht signifikant 
LEIPZIG/SCHKEUDI
DE 129
Do 19.05. 18:20281340 %1017
1016
1002
S 3 (7)
S - SW
>= 10000Nicht signifikant 
LEIPZIG/SCHKEUDI
DE 129
Do 19.05. 17:50291235 %1017
1016
1002
S 3 (9)
SSO - SSW
>= 10000Nicht signifikant 
LEIPZIG/SCHKEUDI
DE 129
Do 19.05. 17:20281135 %1018
1017
1003
S 3 (9)
SO - SSW
>= 10000Nicht signifikant 
LEIPZIG/SCHKEUDI
DE 129
Do 19.05. 16:50281135 %1018
1017
1003
S 4 (11)>= 10000Nicht signifikant 
LEIPZIG/SCHKEUDI
DE 129
Do 19.05. 16:20281135 %1018
1017
1003
SSO 4 (12)
SO - S
>= 10000Nicht signifikant 
LEIPZIG/SCHKEUDI
DE 129
Do 19.05. 15:50291133 %1019
1018
1004
S 3 (10)>= 10000Nicht signifikant 
LEIPZIG/SCHKEUDI
DE 129
Do 19.05. 15:20281135 %1019
1018
1004
SSO 4 (11)
OSO - S
>= 10000Nicht signifikant 
LEIPZIG/SCHKEUDI
DE 129
Do 19.05. 14:50271137 %1019
1018
1004
S 3 (10)>= 10000Nicht signifikant 
LEIPZIG/SCHKEUDI
DE 129
Do 19.05. 14:20271137 %1020
1019
1005
SSO 3 (8)
OSO - S
>= 10000Nicht signifikant 
LEIPZIG/SCHKEUDI
DE 129
Do 19.05. 13:50271137 %1020
1019
1005
SSO 4 (11)
O - S
>= 10000Nicht signifikant 
LEIPZIG/SCHKEUDI
DE 129
Do 19.05. 13:20271137 %1020
1019
1005
SSO 3 (8)
O - SW
>= 10000Nicht signifikant 
LEIPZIG/SCHKEUDI
DE 129
Do 19.05. 12:50261139 %1021
1020
1006
SSO 2 (6)
O - SW
>= 10000Nicht signifikant 
LEIPZIG/SCHKEUDI
DE 129
Do 19.05. 12:20251141 %1021
1021
1006
SSO 3 (7)
OSO - S
>= 10000Nicht signifikant 
LEIPZIG/SCHKEUDI
DE 129
Do 19.05. 11:50251244 %1022
1022
1006
S 3 (8)
SSO - SW
>= 10000Nicht signifikant 
LEIPZIG/SCHKEUDI
DE 129
Do 19.05. 11:20241247 %1022
1022
1006
S 3 (10)>= 10000Nicht signifikant 
LEIPZIG/SCHKEUDI
DE 129
Do 19.05. 10:50241247 %1022
1022
1006
S 3 (10)>= 10000Nicht signifikant 
LEIPZIG/SCHKEUDI
DE 129
Do 19.05. 10:20231353 %1022
1022
1006
S 4 (11)
SSO - SSW
>= 10000Nicht signifikant 
LEIPZIG/SCHKEUDI
DE 129
Do 19.05. 09:50221253 %1022
1022
1006
SSO 4 (11)>= 10000Nicht signifikant 
LEIPZIG/SCHKEUDI
DE 129
Do 19.05. 09:20221357 %1022
1022
1006
SSO 3 (10)>= 10000Nicht signifikant 
LEIPZIG/SCHKEUDI
DE 129
Do 19.05. 08:50201260 %1022
1022
1006
S 3 (10)>= 10000Nicht signifikant 
LEIPZIG/SCHKEUDI
DE 129
Do 19.05. 08:20191160 %1022
1022
1006
S 3 (9)>= 10000Nicht signifikant 
LEIPZIG/SCHKEUDI
DE 129
Do 19.05. 07:50181164 %1022
1022
1006
S 3 (9)>= 10000Nicht signifikant 
LEIPZIG/SCHKEUDI
DE 129
Do 19.05. 07:20181164 %1022
1022
1006
S 3 (9)>= 10000Nicht signifikant 
LEIPZIG/SCHKEUDI
DE 129
Do 19.05. 06:50171168 %1022
1022
1006
S 3 (8)>= 10000Nicht signifikant 
LEIPZIG/SCHKEUDI
DE 129
Do 19.05. 06:20161172 %1022
1022
1006
SSO 3 (8)
NNO - S
>= 10000Nicht signifikant 
LEIPZIG/SCHKEUDI
DE 129
Do 19.05. 05:50151072 %1022
1022
1006
SSO 3 (7)>= 10000Nicht signifikant 
LEIPZIG/SCHKEUDI
DE 129
Do 19.05. 05:20151072 %1022
1022
1006
S 3 (9)>= 10000Nicht signifikant 
LEIPZIG/SCHKEUDI
DE 129
Do 19.05. 04:50151072 %1022
1022
1006
S 3 (8)>= 10000Nicht signifikant 
LEIPZIG/SCHKEUDI
DE 129
Do 19.05. 04:20161172 %1022
1022
1006
S 3 (9)>= 10000Nicht signifikant 
LEIPZIG/SCHKEUDI
DE 129
Do 19.05. 03:50161172 %1022
1022
1006
S 3 (8)>= 10000Nicht signifikant 
LEIPZIG/SCHKEUDI
DE 129
Do 19.05. 03:20161172 %1022
1022
1006
S 3 (8)>= 10000Nicht signifikant 
LEIPZIG/SCHKEUDI
DE 129
Do 19.05. 02:50161172 %1022
1022
1006
SSO 3 (8)>= 10000Nicht signifikant 
LEIPZIG/SCHKEUDI
DE 129
Do 19.05. 02:20171272 %1022
1022
1006
SSO 3 (8)>= 10000Nicht signifikant 
LEIPZIG/SCHKEUDI
DE 129
Do 19.05. 01:50171272 %1022
1022
1006
SSO 3 (8)
SSO - WSW
>= 10000Nicht signifikant 
LEIPZIG/SCHKEUDI
DE 129
Do 19.05. 01:20181268 %1022
1022
1006
SSO 3 (8)>= 10000Nicht signifikant 
LEIPZIG/SCHKEUDI
DE 129
Do 19.05. 00:50181268 %1022
1022
1006
SSO 3 (8)>= 10000Nicht signifikant 
LEIPZIG/SCHKEUDI
DE 129
Do 19.05. 00:20181268 %1023
1023
1007
SSO 3 (8)>= 10000Nicht signifikant 
LEIPZIG/SCHKEUDI
DE 129
Mi 18.05. 23:50181373 %1023
1023
1007
SO 3 (8)>= 10000Nicht signifikant 
LEIPZIG/SCHKEUDI
DE 129
Mi 18.05. 23:20181373 %1023
1023
1007
SO 3 (8)>= 10000Nicht signifikant 
LEIPZIG/SCHKEUDI
DE 129
Mi 18.05. 22:50181373 %1023
1023
1007
OSO 3 (8)>= 10000Nicht signifikant 
LEIPZIG/SCHKEUDI
DE 129
Mi 18.05. 22:20171377 %1023
1023
1007
OSO 3 (8)>= 10000Nicht signifikant 
LEIPZIG/SCHKEUDI
DE 129
Mi 18.05. 21:50171377 %1023
1023
1007
O 3 (8)>= 10000Nicht signifikant 
LEIPZIG/SCHKEUDI
DE 129
Mi 18.05. 21:20181373 %1023
1023
1007
O 3 (8)>= 10000Nicht signifikant 
LEIPZIG/SCHKEUDI
DE 129
Mi 18.05. 20:50201364 %1023
1023
1007
O 2 (6)>= 10000Nicht signifikant 
LEIPZIG/SCHKEUDI
DE 129
Mi 18.05. 20:20231353 %1023
1023
1007
OSO 2 (4)>= 10000Nicht signifikant 
LEIPZIG/SCHKEUDI
DE 129
Mi 18.05. 19:50241350 %1023
1023
1007
SO 2 (4)>= 10000Nicht signifikant 
LEIPZIG/SCHKEUDI
DE 129
Mi 18.05. 19:20241247 %1023
1023
1007
SO 2 (3)>= 10000Nicht signifikant 
LEIPZIG/SCHKEUDI
DE 129
Mi 18.05. 18:50251347 %1023
1023
1007
SO 2 (4)
ONO - SW
>= 10000Nicht signifikant 
LEIPZIG/SCHKEUDI
DE 129
Mi 18.05. 18:20261242 %1023
1022
1007
Uml 1 (2)>= 10000Nicht signifikant 
LEIPZIG/SCHKEUDI
DE 129
Mi 18.05. 17:50251347 %1023
1023
1007
SSO 2 (4)
OSO - SW
>= 10000Nicht signifikant 
LEIPZIG/SCHKEUDI
DE 129
Mi 18.05. 17:20261345 %1023
1022
1007
SSO 2 (5)
OSO - S
>= 10000Nicht signifikant 
LEIPZIG/SCHKEUDI
DE 129
Mi 18.05. 16:50251347 %1023
1023
1007
SSO 3 (7)
O - SSW
>= 10000Nicht signifikant 
LEIPZIG/SCHKEUDI
DE 129
Mi 18.05. 16:20251244 %1023
1023
1007
Uml 2 (5)>= 10000Nicht signifikant 
LEIPZIG/SCHKEUDI
DE 129
Mi 18.05. 15:50251347 %1024
1024
1008
SSO 2 (6)
O - WSW
>= 10000Nicht signifikant 
LEIPZIG/SCHKEUDI
DE 129
Mi 18.05. 15:20251244 %1024
1024
1008
SSO 3 (7)
OSO - S
>= 10000Nicht signifikant 

Altimeter: Einstellung am Altimeter (Höhenmesser), die Höhe 0 muss auf diesen Luftdruckwert zeigen, damit das Gerät die Stationshöhe richtig anzeigt.

NN: Luftdruck reduziert auf "Normal Null", auf Meereshöhe, dieser von der Temperatur abhängige Wert wird bisweilen unkorrekt einfach als "Luftdruck" bezeichnet. Eigentlich nur eine fiktive Größe, die es erlaubt, Stationen auf unterschiedlichen Höhen miteinander zu vergleichen.

Station: Realer Luftdruck an der Station.